Time;durP1;ratioP1;P1;durP2;ratioP2;P2;SDS_P1;SDS_P2;PMS_P1;PMS_P2;Temp;Humidity;BMP_temperature;BMP_pressure;BME280_temperature;BME280_humidity;BME280_pressure;Samples;Min_cycle;Max_cycle;Signal;HPM_P1;HPM_P2
2022/01/25 00:10:16;;;;;;;22.13;5.60;;;0.50;90.90;;;;;;6204350;28;20058;-77
2022/01/25 00:26:40;;;;;;;12.25;5.95;;;0.40;91.00;;;;;;6204039;28;20038;-78
2022/01/25 00:29:57;;;;;;;15.60;7.10;;;0.40;91.10;;;;;;6205309;28;20049;-78
2022/01/25 00:33:00;;;;;;;14.05;5.57;;;0.40;91.10;;;;;;6204047;28;20049;-78
2022/01/25 00:36:06;;;;;;;11.82;5.93;;;0.40;91.20;;;;;;6204250;28;20444;-78
2022/01/25 00:39:08;;;;;;;15.18;5.55;;;0.40;91.10;;;;;;6204698;28;20094;-78
2022/01/25 00:42:10;;;;;;;11.65;5.45;;;0.40;91.10;;;;;;6205022;28;20052;-78
2022/01/25 00:45:14;;;;;;;13.70;5.22;;;0.40;91.10;;;;;;6204656;28;20050;-78
2022/01/25 00:48:19;;;;;;;16.88;6.28;;;0.40;91.10;;;;;;6209323;28;20050;-78
2022/01/25 00:57:54;;;;;;;12.20;5.90;;;0.30;91.00;;;;;;6334277;22;20523;-82
2022/01/25 01:00:57;;;;;;;11.50;5.38;;;0.30;91.00;;;;;;6313489;28;20053;-84
2022/01/25 01:04:00;;;;;;;10.65;4.43;;;0.30;91.00;;;;;;6307962;28;20051;-83
2022/01/25 01:07:08;;;;;;;13.07;5.72;;;0.20;91.00;;;;;;6295842;28;20087;-83
2022/01/25 01:10:12;;;;;;;14.65;5.97;;;0.20;90.90;;;;;;6290281;28;20051;-84
2022/01/25 01:13:49;;;;;;;14.10;5.38;;;0.20;90.90;;;;;;6290264;28;20048;-84
2022/01/25 01:17:10;;;;;;;18.27;5.13;;;0.20;90.90;;;;;;6290078;28;20163;-83
2022/01/25 01:30:24;;;;;;;13.20;5.95;;;0.10;90.70;;;;;;6290093;28;20045;-83
2022/01/25 01:43:37;;;;;;;12.80;5.93;;;0.00;90.70;;;;;;6265948;28;20045;-83
2022/01/25 01:46:44;;;;;;;15.98;6.35;;;0.00;90.70;;;;;;6253608;28;20489;-83
2022/01/25 01:49:46;;;;;;;14.60;6.43;;;0.00;90.70;;;;;;6264400;28;20053;-85
2022/01/25 01:52:49;;;;;;;11.00;5.25;;;0.00;90.80;;;;;;6268438;28;20395;-83
2022/01/25 01:55:51;;;;;;;12.70;5.82;;;0.00;90.90;;;;;;6267037;28;20056;-84
2022/01/25 01:58:55;;;;;;;12.25;6.13;;;0.00;90.80;;;;;;6268116;28;20110;-84
2022/01/25 02:01:57;;;;;;;17.00;6.22;;;0.00;90.80;;;;;;6285418;28;20080;-84
2022/01/25 02:04:59;;;;;;;12.93;5.35;;;0.00;90.70;;;;;;6292366;28;20115;-84
2022/01/25 02:08:03;;;;;;;18.17;5.75;;;0.00;91.10;;;;;;6293443;28;20065;-85
2022/01/25 02:11:06;;;;;;;11.05;5.63;;;0.00;90.80;;;;;;6290117;28;20135;-84
2022/01/25 02:14:09;;;;;;;10.88;5.53;;;-0.10;90.80;;;;;;6290390;28;20080;-82
2022/01/25 02:17:25;;;;;;;6.80;4.05;;;-0.10;90.80;;;;;;6289121;28;20068;-83
2022/01/25 02:23:48;;;;;;;10.55;5.13;;;-0.10;90.70;;;;;;6288938;28;20052;-84
2022/01/25 02:26:54;;;;;;;9.57;4.43;;;-0.10;90.70;;;;;;6285532;28;20041;-85
2022/01/25 02:29:56;;;;;;;12.98;5.10;;;0.00;90.70;;;;;;6290297;28;20033;-84
2022/01/25 02:32:58;;;;;;;9.18;4.95;;;0.00;90.60;;;;;;6291447;28;20041;-85
2022/01/25 02:36:07;;;;;;;12.43;5.47;;;-0.10;90.50;;;;;;6293278;28;20475;-83
2022/01/25 02:39:09;;;;;;;9.57;5.00;;;-0.10;90.50;;;;;;6292941;28;20128;-84
2022/01/25 02:42:12;;;;;;;10.60;4.57;;;-0.20;90.50;;;;;;6293621;28;20049;-84
2022/01/25 02:45:16;;;;;;;9.38;5.20;;;-0.20;90.50;;;;;;6295580;28;20049;-85
2022/01/25 02:48:30;;;;;;;14.13;4.97;;;-0.20;90.60;;;;;;6294908;28;20049;-84
2022/01/25 02:51:35;;;;;;;10.40;5.57;;;-0.30;90.50;;;;;;6294586;28;20402;-84
2022/01/25 02:54:40;;;;;;;14.15;5.35;;;-0.30;90.40;;;;;;6293206;28;20041;-83
2022/01/25 02:57:42;;;;;;;9.80;5.22;;;-0.40;90.60;;;;;;6294316;28;20450;-85
2022/01/25 03:00:44;;;;;;;11.75;5.18;;;-0.40;90.60;;;;;;6293053;28;20437;-84
2022/01/25 03:03:46;;;;;;;9.93;5.00;;;-0.40;90.70;;;;;;6292678;28;20041;-85
2022/01/25 03:06:49;;;;;;;13.32;5.18;;;-0.40;90.80;;;;;;6292404;28;20410;-84
2022/01/25 03:09:53;;;;;;;19.38;5.50;;;-0.40;90.80;;;;;;6294121;28;20067;-85
2022/01/25 03:12:56;;;;;;;12.57;5.80;;;-0.40;90.80;;;;;;6293328;28;20048;-85
2022/01/25 03:16:02;;;;;;;15.43;6.55;;;-0.30;90.70;;;;;;6293996;28;20045;-84
2022/01/25 03:19:29;;;;;;;13.50;5.57;;;-0.30;90.60;;;;;;6293968;28;20595;-86
2022/01/25 03:22:54;;;;;;;13.52;5.40;;;-0.40;90.50;;;;;;6294125;28;20041;-83
2022/01/25 03:25:56;;;;;;;13.37;5.57;;;-0.30;90.40;;;;;;6294542;28;20049;-86
2022/01/25 03:28:58;;;;;;;15.98;6.20;;;-0.30;90.20;;;;;;6293313;28;20291;-84
2022/01/25 03:32:00;;;;;;;9.07;5.25;;;-0.20;90.20;;;;;;6292756;28;20049;-85
2022/01/25 03:35:02;;;;;;;20.15;5.80;;;-0.20;90.00;;;;;;6292800;28;20105;-85
2022/01/25 03:38:05;;;;;;;13.20;5.45;;;-0.20;89.90;;;;;;6292997;28;20044;-84
2022/01/25 03:41:12;;;;;;;24.42;7.43;;;-0.20;90.00;;;;;;6294043;28;20041;-85
2022/01/25 03:44:16;;;;;;;25.45;8.38;;;-0.20;90.00;;;;;;6292892;28;20040;-85
2022/01/25 03:47:22;;;;;;;29.67;9.38;;;-0.20;90.00;;;;;;6293174;28;20049;-84
2022/01/25 03:50:24;;;;;;;24.67;6.85;;;-0.20;90.10;;;;;;6295238;28;20076;-84
2022/01/25 03:53:27;;;;;;;33.67;8.90;;;-0.30;90.10;;;;;;6302716;28;20045;-85
2022/01/25 03:56:29;;;;;;;37.63;9.25;;;-0.30;90.10;;;;;;6300279;28;20110;-85
2022/01/25 03:59:30;;;;;;;41.47;9.27;;;-0.30;90.10;;;;;;6299902;28;20053;-85
2022/01/25 04:02:34;;;;;;;22.90;7.47;;;-0.20;90.40;;;;;;6299419;28;20092;-86
2022/01/25 04:05:39;;;;;;;39.03;9.95;;;-0.20;90.20;;;;;;6299285;28;20060;-85
2022/01/25 04:08:42;;;;;;;25.52;9.30;;;-0.20;90.20;;;;;;6297278;28;20041;-85
2022/01/25 04:11:44;;;;;;;25.60;9.25;;;-0.10;90.30;;;;;;6297403;28;20064;-85
2022/01/25 04:14:45;;;;;;;23.77;8.95;;;-0.10;90.20;;;;;;6297562;28;20037;-86
2022/01/25 04:17:52;;;;;;;37.72;10.95;;;-0.10;90.20;;;;;;6298042;28;20053;-84
2022/01/25 04:21:01;;;;;;;43.42;12.73;;;-0.10;90.40;;;;;;6297461;28;20045;-85
2022/01/25 04:27:26;;;;;;;28.42;11.02;;;0.10;90.70;;;;;;6296767;28;20037;-85
2022/01/25 04:30:28;;;;;;;103.05;14.63;;;0.10;90.60;;;;;;6296164;28;20045;-85
2022/01/25 04:33:40;;;;;;;78.22;15.10;;;0.10;90.70;;;;;;6299697;28;20053;-84
2022/01/25 04:48:49;;;;;;;52.05;12.63;;;0.10;90.90;;;;;;6297743;28;20072;-85
2022/01/25 04:50:35;;;;;;;32.90;11.90;;;0.00;90.90;;;;;;6295208;28;20076;-85
2022/01/25 04:53:46;;;;;;;36.92;12.32;;;0.00;91.00;;;;;;6296158;28;20053;-83
2022/01/25 04:56:56;;;;;;;27.95;10.82;;;0.00;91.00;;;;;;6294266;28;20055;-84
2022/01/25 05:00:03;;;;;;;89.55;13.07;;;0.00;90.80;;;;;;6295156;28;20064;-83
2022/01/25 05:03:10;;;;;;;29.90;11.30;;;0.00;90.80;;;;;;6294355;28;20048;-84
2022/01/25 05:06:15;;;;;;;39.05;13.65;;;0.10;90.70;;;;;;6293996;28;20045;-85
2022/01/25 05:09:19;;;;;;;47.75;11.57;;;0.10;90.60;;;;;;6295001;28;20583;-84
2022/01/25 05:12:34;;;;;;;47.10;12.32;;;0.10;90.50;;;;;;6293584;28;20045;-85
2022/01/25 05:16:02;;;;;;;39.13;14.18;;;0.10;90.50;;;;;;6291655;28;20124;-84
2022/01/25 05:19:21;;;;;;;39.53;14.13;;;0.10;90.60;;;;;;6293960;28;20075;-85
2022/01/25 05:22:26;;;;;;;25.67;12.23;;;0.00;90.60;;;;;;6294639;28;20091;-85
2022/01/25 05:25:28;;;;;;;41.38;12.55;;;-0.10;90.60;;;;;;6294857;28;20095;-85
2022/01/25 05:28:31;;;;;;;37.63;11.77;;;-0.10;90.70;;;;;;6294632;28;20109;-85
2022/01/25 05:31:33;;;;;;;39.03;13.45;;;-0.20;90.60;;;;;;6295455;28;20041;-85
2022/01/25 05:34:35;;;;;;;47.70;12.40;;;-0.10;90.80;;;;;;6295209;28;20109;-85
2022/01/25 05:37:41;;;;;;;38.72;13.85;;;-0.10;90.80;;;;;;6295832;28;20064;-85
2022/01/25 05:40:46;;;;;;;50.97;11.13;;;-0.10;90.80;;;;;;6294268;28;20063;-85
2022/01/25 05:44:12;;;;;;;42.80;12.73;;;-0.10;90.70;;;;;;6295036;28;20049;-85
2022/01/25 05:47:14;;;;;;;32.35;12.30;;;-0.10;90.70;;;;;;6294209;28;20044;-85
2022/01/25 05:50:16;;;;;;;39.65;12.07;;;-0.10;90.60;;;;;;6295227;28;20071;-84
2022/01/25 05:53:19;;;;;;;36.47;14.40;;;0.00;90.60;;;;;;6294958;28;20045;-85
2022/01/25 05:56:21;;;;;;;29.38;14.05;;;-0.10;90.50;;;;;;6290065;28;20041;-85
2022/01/25 05:59:24;;;;;;;29.15;10.93;;;-0.10;90.70;;;;;;6290435;28;20060;-84
2022/01/25 06:02:28;;;;;;;44.75;12.00;;;-0.20;90.70;;;;;;6288845;28;20541;-84
2022/01/25 06:05:30;;;;;;;28.67;11.55;;;-0.20;90.60;;;;;;6288970;28;20418;-85
2022/01/25 06:08:31;;;;;;;37.28;11.27;;;-0.20;90.60;;;;;;6288899;28;20045;-84
2022/01/25 06:11:33;;;;;;;30.20;14.10;;;-0.20;90.60;;;;;;6290174;28;20102;-84
2022/01/25 06:14:37;;;;;;;34.92;11.70;;;-0.30;90.60;;;;;;6287875;28;20055;-84
2022/01/25 06:17:39;;;;;;;35.08;11.65;;;-0.30;90.70;;;;;;6288322;28;20044;-86
2022/01/25 06:20:41;;;;;;;32.92;13.70;;;-0.40;90.50;;;;;;6288343;28;20048;-84
2022/01/25 06:23:43;;;;;;;33.05;12.00;;;-0.40;90.50;;;;;;6289401;28;20478;-84
2022/01/25 06:26:45;;;;;;;32.22;12.48;;;-0.40;90.60;;;;;;6287208;28;20067;-84
2022/01/25 06:29:49;;;;;;;28.13;13.30;;;-0.40;90.70;;;;;;6290050;28;20053;-84
2022/01/25 06:32:51;;;;;;;42.20;15.45;;;-0.40;90.70;;;;;;6291492;28;20057;-85
2022/01/25 06:35:53;;;;;;;47.58;15.70;;;-0.30;90.80;;;;;;6292662;28;20116;-85
2022/01/25 06:38:55;;;;;;;56.72;17.27;;;-0.20;91.20;;;;;;6291146;28;20045;-83
2022/01/25 06:41:57;;;;;;;70.47;16.63;;;-0.20;91.50;;;;;;6289595;28;20579;-84
2022/01/25 06:45:03;;;;;;;40.85;15.18;;;-0.10;91.50;;;;;;6287898;28;20064;-85
2022/01/25 06:48:05;;;;;;;54.53;17.42;;;-0.10;91.20;;;;;;6288051;28;20041;-83
2022/01/25 06:51:07;;;;;;;55.97;15.15;;;0.00;91.70;;;;;;6289963;28;20061;-85
2022/01/25 06:54:09;;;;;;;44.45;17.23;;;0.00;91.20;;;;;;6288620;28;20068;-83
2022/01/25 06:57:11;;;;;;;39.75;15.00;;;0.00;91.00;;;;;;6283181;28;20194;-83
2022/01/25 07:00:17;;;;;;;35.00;12.43;;;0.00;90.90;;;;;;6277323;28;20045;-83
2022/01/25 07:03:19;;;;;;;41.55;11.98;;;0.00;90.90;;;;;;6278247;28;20175;-82
2022/01/25 07:06:21;;;;;;;46.17;16.70;;;0.00;90.80;;;;;;6277647;28;20063;-82
2022/01/25 07:09:23;;;;;;;50.67;15.57;;;0.00;90.80;;;;;;6275767;28;20048;-83
2022/01/25 07:12:25;;;;;;;53.67;15.65;;;0.00;90.90;;;;;;6277402;28;20165;-83
2022/01/25 07:15:28;;;;;;;36.20;14.30;;;-0.20;90.60;;;;;;6276702;28;20045;-83
2022/01/25 07:18:30;;;;;;;35.53;14.32;;;-0.20;90.80;;;;;;6276255;28;20127;-83
2022/01/25 07:21:31;;;;;;;39.40;12.82;;;-0.20;90.90;;;;;;6276914;28;20560;-82
2022/01/25 07:24:33;;;;;;;41.15;13.65;;;-0.20;91.00;;;;;;6276327;28;20136;-83
2022/01/25 07:27:35;;;;;;;77.75;18.30;;;-0.10;90.80;;;;;;6281322;28;20134;-82
2022/01/25 07:30:38;;;;;;;37.00;13.85;;;-0.10;90.60;;;;;;6282438;28;20514;-82
2022/01/25 07:33:40;;;;;;;44.00;13.90;;;-0.10;90.70;;;;;;6266586;28;20495;-83
2022/01/25 07:36:43;;;;;;;35.42;13.38;;;-0.10;90.80;;;;;;6278780;28;20580;-82
2022/01/25 07:39:47;;;;;;;41.83;13.52;;;-0.10;90.80;;;;;;6282855;28;20056;-83
2022/01/25 07:42:48;;;;;;;36.78;13.18;;;-0.10;91.00;;;;;;6291228;28;20052;-83
2022/01/25 07:45:53;;;;;;;33.90;13.02;;;-0.10;90.70;;;;;;6288562;28;20057;-83
2022/01/25 07:48:55;;;;;;;26.13;11.32;;;-0.10;90.60;;;;;;6284812;28;20468;-83
2022/01/25 07:51:57;;;;;;;42.67;11.77;;;0.00;90.60;;;;;;6284591;28;20481;-83
2022/01/25 07:54:59;;;;;;;26.30;13.35;;;0.00;90.50;;;;;;6283814;28;20049;-83
2022/01/25 07:58:01;;;;;;;33.38;13.93;;;0.20;91.10;;;;;;6284451;28;20139;-83
2022/01/25 08:01:05;;;;;;;26.20;11.98;;;0.30;90.50;;;;;;6283861;28;20049;-83
2022/01/25 08:04:08;;;;;;;27.13;13.68;;;0.50;90.10;;;;;;6283720;28;20080;-83
2022/01/25 08:07:10;;;;;;;26.98;11.15;;;0.50;90.00;;;;;;6281965;28;20565;-83
2022/01/25 08:10:12;;;;;;;30.92;11.15;;;0.60;90.00;;;;;;6276949;28;20041;-83
2022/01/25 08:13:14;;;;;;;23.70;10.00;;;0.60;89.90;;;;;;6283302;28;20053;-83
2022/01/25 08:16:17;;;;;;;25.73;11.00;;;0.70;89.70;;;;;;6282602;28;20055;-83
2022/01/25 08:19:23;;;;;;;22.75;10.50;;;0.70;89.40;;;;;;6288070;28;20045;-83
2022/01/25 08:22:25;;;;;;;21.17;8.93;;;0.80;89.30;;;;;;6289225;28;20045;-84
2022/01/25 08:25:27;;;;;;;24.13;10.65;;;0.90;89.50;;;;;;6282442;28;20073;-83
2022/01/25 08:28:30;;;;;;;28.90;10.57;;;1.10;89.50;;;;;;6281246;28;20124;-83
2022/01/25 08:31:34;;;;;;;21.10;10.60;;;1.30;89.60;;;;;;6280589;28;20055;-83
2022/01/25 08:34:36;;;;;;;25.13;11.55;;;1.50;89.30;;;;;;6281210;28;20514;-84
2022/01/25 08:37:38;;;;;;;25.33;9.77;;;1.80;89.20;;;;;;6282477;28;20410;-83
2022/01/25 08:40:40;;;;;;;22.65;10.82;;;2.20;88.80;;;;;;6286657;28;20427;-83
2022/01/25 08:43:42;;;;;;;19.75;11.02;;;2.40;87.90;;;;;;6288140;28;20561;-83
2022/01/25 08:46:45;;;;;;;23.20;10.23;;;2.60;87.30;;;;;;6282537;28;20048;-82
2022/01/25 08:49:47;;;;;;;24.67;10.40;;;2.90;87.30;;;;;;6266097;28;20045;-82
2022/01/25 08:52:48;;;;;;;20.77;10.68;;;3.20;86.90;;;;;;6258462;28;20045;-85
2022/01/25 08:55:50;;;;;;;23.92;11.02;;;3.50;86.10;;;;;;6257725;28;20577;-84
2022/01/25 08:58:52;;;;;;;19.77;9.00;;;3.70;85.20;;;;;;6280902;28;20040;-84
2022/01/25 09:01:55;;;;;;;20.80;11.18;;;3.80;85.20;;;;;;6283279;28;20055;-84
2022/01/25 09:04:57;;;;;;;29.42;12.15;;;4.00;84.30;;;;;;6280925;28;20053;-82
2022/01/25 09:08:01;;;;;;;30.13;13.02;;;4.20;84.20;;;;;;6280015;28;20183;-83
2022/01/25 09:11:05;;;;;;;24.80;11.55;;;4.30;83.50;;;;;;6272447;28;20044;-84
2022/01/25 09:14:07;;;;;;;25.63;12.05;;;4.30;82.90;;;;;;6259839;28;20049;-82
2022/01/25 09:17:10;;;;;;;28.33;12.30;;;4.30;82.90;;;;;;6283112;28;20418;-83
2022/01/25 09:20:12;;;;;;;30.20;14.52;;;4.30;82.80;;;;;;6283496;28;20052;-82
2022/01/25 09:23:16;;;;;;;31.63;13.15;;;4.30;83.20;;;;;;6282611;28;20056;-84
2022/01/25 09:26:18;;;;;;;42.00;13.50;;;4.40;82.90;;;;;;6282053;28;20055;-83
2022/01/25 09:29:19;;;;;;;29.77;13.70;;;4.50;82.50;;;;;;6280501;28;20508;-83
2022/01/25 09:32:23;;;;;;;28.95;13.60;;;4.50;82.20;;;;;;6281407;28;20048;-83
2022/01/25 09:35:25;;;;;;;44.92;12.73;;;4.50;82.10;;;;;;6280260;28;20128;-82
2022/01/25 09:38:27;;;;;;;29.02;14.00;;;4.50;82.30;;;;;;6283543;28;20052;-83
2022/01/25 09:41:29;;;;;;;34.13;14.48;;;4.50;82.20;;;;;;6283708;28;20455;-82
2022/01/25 09:44:31;;;;;;;44.47;16.17;;;4.60;81.90;;;;;;6281020;28;20052;-83
2022/01/25 09:47:34;;;;;;;41.00;15.70;;;4.50;82.10;;;;;;6280908;28;20474;-84
2022/01/25 09:50:37;;;;;;;62.55;16.25;;;4.30;81.90;;;;;;6279847;28;20413;-83
2022/01/25 09:53:40;;;;;;;43.63;18.02;;;4.20;82.60;;;;;;6281002;28;20056;-83
2022/01/25 09:56:42;;;;;;;42.08;16.05;;;4.20;83.10;;;;;;6279232;28;20045;-83
2022/01/25 09:59:44;;;;;;;27.83;14.38;;;4.30;83.00;;;;;;6279537;28;20441;-83
2022/01/25 10:02:56;;;;;;;31.13;15.73;;;4.30;82.90;;;;;;6279930;28;20068;-83
2022/01/25 10:06:00;;;;;;;33.28;14.63;;;4.40;82.90;;;;;;6279369;28;20063;-82
2022/01/25 10:09:02;;;;;;;43.95;16.00;;;4.40;82.60;;;;;;6282040;28;20081;-84
2022/01/25 10:12:17;;;;;;;56.40;16.48;;;4.50;82.10;;;;;;6282269;28;20621;-84
2022/01/25 10:15:19;;;;;;;50.90;17.38;;;4.40;82.40;;;;;;6257562;28;20137;-85
2022/01/25 10:18:39;;;;;;;39.17;16.55;;;4.40;82.60;;;;;;6243519;28;20506;-86
2022/01/25 10:21:43;;;;;;;35.97;17.95;;;4.30;82.40;;;;;;6254579;28;20053;-83
2022/01/25 10:24:45;;;;;;;40.63;16.98;;;4.30;82.70;;;;;;6254448;28;20132;-82
2022/01/25 10:28:01;;;;;;;40.58;18.50;;;4.30;82.70;;;;;;6253970;28;20051;-83
2022/01/25 10:31:05;;;;;;;37.20;18.85;;;4.40;82.70;;;;;;6261149;28;20049;-82
2022/01/25 10:34:11;;;;;;;39.03;18.70;;;4.40;82.50;;;;;;6253324;28;20046;-82
2022/01/25 10:37:15;;;;;;;47.78;18.65;;;4.40;82.50;;;;;;6255678;28;20045;-82
2022/01/25 10:40:36;;;;;;;45.83;19.15;;;4.40;82.60;;;;;;6275005;28;20052;-81
2022/01/25 10:43:39;;;;;;;41.42;17.38;;;4.30;82.30;;;;;;6279442;28;20067;-84
2022/01/25 10:46:41;;;;;;;50.35;18.27;;;4.10;82.60;;;;;;6281318;28;20059;-83
2022/01/25 10:49:49;;;;;;;39.63;19.38;;;4.00;83.10;;;;;;6284033;28;20051;-83
2022/01/25 10:53:05;;;;;;;58.58;24.70;;;4.10;83.60;;;;;;6275494;28;20056;-79
2022/01/25 10:56:09;;;;;;;82.70;35.63;;;4.10;83.80;;;;;;6279594;28;20036;-81
2022/01/25 10:59:14;;;;;;;71.53;28.77;;;4.20;83.90;;;;;;6282168;28;20569;-82
2022/01/25 11:02:22;;;;;;;52.13;21.52;;;4.50;89.00;;;;;;6287595;28;20049;-82
2022/01/25 11:05:25;;;;;;;52.22;21.02;;;4.60;84.70;;;;;;6288468;28;20056;-82
2022/01/25 11:08:28;;;;;;;48.67;20.67;;;4.60;84.10;;;;;;6286803;28;20068;-80
2022/01/25 11:11:34;;;;;;;42.35;18.98;;;4.60;83.30;;;;;;6287266;28;20072;-81
2022/01/25 11:14:53;;;;;;;52.17;21.50;;;4.60;83.40;;;;;;6285241;28;20045;-82
2022/01/25 11:17:54;;;;;;;;;;;4.70;83.10;;;;;;6277803;28;20060;-79
2022/01/25 11:20:59;;;;;;;53.88;21.40;;;4.50;83.00;;;;;;6259730;28;20010;-82
2022/01/25 11:24:01;;;;;;;54.88;21.88;;;4.50;82.70;;;;;;6260589;28;20069;-82
2022/01/25 11:27:06;;;;;;;48.75;20.65;;;4.40;83.50;;;;;;6274378;28;20064;-81
2022/01/25 11:30:12;;;;;;;56.90;21.15;;;4.50;83.20;;;;;;6300768;28;20073;-81
2022/01/25 11:33:14;;;;;;;55.70;21.35;;;4.40;82.90;;;;;;6288663;28;20502;-82
2022/01/25 11:36:19;;;;;;;55.08;23.33;;;4.40;83.30;;;;;;6288334;28;20077;-81
2022/01/25 11:39:23;;;;;;;56.58;21.17;;;4.30;83.20;;;;;;6288719;28;20045;-82
2022/01/25 11:42:26;;;;;;;62.67;22.73;;;4.20;83.50;;;;;;6287706;28;20059;-80
2022/01/25 11:45:31;;;;;;;56.13;22.08;;;4.20;83.80;;;;;;6287998;28;20149;-80
2022/01/25 11:48:39;;;;;;;73.55;23.27;;;4.30;84.10;;;;;;6290371;28;20053;-80
2022/01/25 11:51:42;;;;;;;61.90;24.02;;;4.40;83.90;;;;;;6289913;28;20045;-80
2022/01/25 11:54:45;;;;;;;73.38;25.27;;;4.30;83.60;;;;;;6287404;28;20051;-80
2022/01/25 11:57:49;;;;;;;67.88;25.17;;;4.30;84.30;;;;;;6289975;28;20052;-80
2022/01/25 12:00:53;;;;;;;78.03;24.05;;;4.40;84.40;;;;;;6288184;28;20554;-82
2022/01/25 12:03:58;;;;;;;66.85;22.70;;;4.40;84.00;;;;;;6284629;28;20048;-78
2022/01/25 12:07:09;;;;;;;76.00;28.13;;;4.40;84.00;;;;;;6284880;28;20052;-79
2022/01/25 12:10:30;;;;;;;84.22;25.55;;;4.40;84.30;;;;;;6285377;28;20056;-82
2022/01/25 12:13:33;;;;;;;66.20;25.95;;;4.50;84.20;;;;;;6270947;28;20049;-80
2022/01/25 12:16:43;;;;;;;87.68;26.65;;;4.50;84.50;;;;;;6284484;28;20060;-79
2022/01/25 12:19:48;;;;;;;81.97;28.30;;;4.70;84.30;;;;;;6285414;28;20553;-82
2022/01/25 12:23:05;;;;;;;82.93;28.02;;;4.80;83.90;;;;;;6286560;28;20071;-79
2022/01/25 12:26:09;;;;;;;81.65;27.05;;;4.80;83.70;;;;;;6285804;28;20392;-80
2022/01/25 12:29:31;;;;;;;84.95;28.73;;;4.90;83.60;;;;;;6285620;28;20247;-80
2022/01/25 12:32:35;;;;;;;83.82;27.23;;;4.90;83.40;;;;;;6283070;28;20056;-81
2022/01/25 12:35:43;;;;;;;76.82;27.77;;;4.90;83.70;;;;;;6285371;28;20041;-80
2022/01/25 12:38:49;;;;;;;74.72;27.98;;;5.00;83.40;;;;;;6284056;28;20127;-79
2022/01/25 12:41:51;;;;;;;83.28;28.98;;;5.00;83.30;;;;;;6285751;28;20506;-79
2022/01/25 12:44:54;;;;;;;82.63;30.95;;;5.10;83.10;;;;;;6289893;28;20049;-80
2022/01/25 12:47:59;;;;;;;69.45;26.98;;;5.20;83.20;;;;;;6289213;28;20052;-80
2022/01/25 12:51:06;;;;;;;84.43;29.70;;;5.20;82.90;;;;;;6287050;28;20037;-81
2022/01/25 12:54:11;;;;;;;72.15;28.30;;;5.30;82.70;;;;;;6285827;28;20119;-81
2022/01/25 12:57:14;;;;;;;85.28;31.08;;;5.30;82.60;;;;;;6295365;22;20210;-79
2022/01/25 13:00:17;;;;;;;140.10;62.15;;;5.40;82.70;;;;;;6277516;28;20507;-80
2022/01/25 13:03:29;;;;;;;75.22;26.13;;;5.50;82.50;;;;;;6275995;28;20091;-79
2022/01/25 13:06:32;;;;;;;68.50;27.92;;;5.50;82.00;;;;;;6274543;28;20059;-78
2022/01/25 13:09:42;;;;;;;84.72;29.20;;;5.50;81.70;;;;;;6268712;28;20041;-79
2022/01/25 13:12:56;;;;;;;71.90;28.63;;;5.50;81.80;;;;;;6270896;28;20145;-80
2022/01/25 13:15:59;;;;;;;77.82;32.33;;;5.50;81.80;;;;;;6265259;28;20425;-80
2022/01/25 13:19:01;;;;;;;55.58;24.17;;;5.50;81.90;;;;;;6274165;28;20053;-78
2022/01/25 13:22:07;;;;;;;66.53;26.02;;;5.60;81.80;;;;;;6272845;28;20190;-78
2022/01/25 13:25:25;;;;;;;102.40;53.92;;;5.70;81.60;;;;;;6275563;28;20048;-79
2022/01/25 13:28:37;;;;;;;85.97;37.92;;;5.70;81.40;;;;;;6275755;28;20461;-79
2022/01/25 13:31:39;;;;;;;61.75;24.58;;;5.80;81.20;;;;;;6280666;28;20136;-79
2022/01/25 13:34:41;;;;;;;71.00;24.98;;;5.80;81.00;;;;;;6278601;28;20578;-79
2022/01/25 13:37:43;;;;;;;59.13;23.90;;;5.90;80.50;;;;;;6281039;28;20116;-80
2022/01/25 13:40:51;;;;;;;72.50;24.88;;;5.70;80.00;;;;;;6276081;28;20132;-78
2022/01/25 13:47:14;;;;;;;59.50;22.35;;;5.80;80.50;;;;;;6260123;28;20390;-79
2022/01/25 13:50:17;;;;;;;58.70;23.73;;;5.80;80.30;;;;;;6275956;28;20049;-78
2022/01/25 13:53:19;;;;;;;54.45;22.02;;;5.70;80.30;;;;;;6277242;28;20108;-79
2022/01/25 13:56:25;;;;;;;56.92;25.17;;;5.80;80.80;;;;;;6280902;28;20051;-81
2022/01/25 13:59:26;;;;;;;55.55;23.83;;;5.80;80.60;;;;;;6279193;28;20041;-79
2022/01/25 14:02:28;;;;;;;60.45;23.77;;;5.90;80.30;;;;;;6276356;28;20100;-79
2022/01/25 14:05:36;;;;;;;68.00;32.65;;;5.90;80.10;;;;;;6278169;28;20048;-79
2022/01/25 14:08:40;;;;;;;60.35;24.75;;;6.00;80.10;;;;;;6279664;28;20052;-79
2022/01/25 14:21:35;;;;;;;57.45;23.10;;;6.00;79.80;;;;;;6277090;28;20147;-80
2022/01/25 14:22:12;;;;;;;60.05;22.80;;;5.80;79.90;;;;;;6275038;28;20049;-79
2022/01/25 14:25:25;;;;;;;62.38;24.38;;;5.70;80.00;;;;;;6275291;28;20051;-79
2022/01/25 14:28:31;;;;;;;59.60;25.80;;;5.70;80.20;;;;;;6274266;28;20059;-78
2022/01/25 14:31:41;;;;;;;63.25;24.00;;;5.80;80.10;;;;;;6275500;28;20049;-79
2022/01/25 14:34:43;;;;;;;55.10;24.05;;;5.80;80.00;;;;;;6273214;28;20502;-79
2022/01/25 14:37:48;;;;;;;59.58;23.38;;;5.70;79.80;;;;;;6275959;28;20045;-79
2022/01/25 14:41:06;;;;;;;59.65;26.33;;;5.70;79.90;;;;;;6272089;28;20096;-79
2022/01/25 14:44:11;;;;;;;48.70;17.50;;;5.60;80.10;;;;;;6274475;28;20048;-81
2022/01/25 14:47:17;;;;;;;61.97;24.20;;;5.40;80.50;;;;;;6270702;28;20041;-79
2022/01/25 14:50:23;;;;;;;66.30;26.33;;;5.40;80.80;;;;;;6274295;28;20049;-78
2022/01/25 14:53:24;;;;;;;51.72;22.33;;;5.30;81.00;;;;;;6274582;28;20044;-79
2022/01/25 14:56:30;;;;;;;62.97;22.70;;;5.30;81.10;;;;;;6276257;28;20128;-78
2022/01/25 14:59:35;;;;;;;74.28;25.55;;;5.20;81.30;;;;;;6271807;28;20122;-79
2022/01/25 15:02:37;;;;;;;58.30;23.90;;;5.20;81.50;;;;;;6273163;28;20494;-78
2022/01/25 15:05:39;;;;;;;65.57;25.38;;;5.10;81.70;;;;;;6274574;28;20148;-79
2022/01/25 15:08:49;;;;;;;63.78;22.45;;;5.00;81.90;;;;;;6274751;28;20045;-78
2022/01/25 15:11:53;;;;;;;67.10;27.02;;;4.90;82.20;;;;;;6272913;28;20045;-79
2022/01/25 15:15:04;;;;;;;74.32;26.33;;;4.90;82.50;;;;;;6274126;28;20060;-78
2022/01/25 15:18:06;;;;;;;91.20;37.75;;;4.80;82.60;;;;;;6249374;28;20046;-78
2022/01/25 15:21:09;;;;;;;66.28;25.42;;;4.80;82.90;;;;;;6249484;28;20053;-78
2022/01/25 15:24:10;;;;;;;70.22;27.75;;;4.80;83.10;;;;;;6254743;28;20044;-80
2022/01/25 15:27:13;;;;;;;77.72;30.58;;;4.80;83.30;;;;;;6272402;28;20045;-78
2022/01/25 15:30:16;;;;;;;71.47;24.70;;;4.90;83.40;;;;;;6274256;28;20096;-79
2022/01/25 15:33:18;;;;;;;61.10;22.88;;;4.90;83.10;;;;;;6275799;28;20059;-79
2022/01/25 15:36:21;;;;;;;61.58;23.38;;;4.90;83.30;;;;;;6272387;28;20044;-80
2022/01/25 15:39:23;;;;;;;61.88;25.83;;;4.90;83.20;;;;;;6273936;28;20045;-79
2022/01/25 15:42:28;;;;;;;65.03;23.40;;;4.70;83.80;;;;;;6276103;28;20061;-80
2022/01/25 15:45:43;;;;;;;64.50;25.05;;;4.60;84.20;;;;;;6275772;28;20410;-79
2022/01/25 15:48:44;;;;;;;60.83;23.30;;;4.50;84.50;;;;;;6278301;28;20053;-79
2022/01/25 15:51:46;;;;;;;64.60;23.67;;;4.50;84.70;;;;;;6278029;28;20528;-79
2022/01/25 15:54:48;;;;;;;69.30;26.15;;;4.40;85.00;;;;;;6282621;28;20045;-80
2022/01/25 15:57:50;;;;;;;72.38;24.33;;;4.50;85.20;;;;;;6280514;28;20057;-79
2022/01/25 16:00:53;;;;;;;56.05;24.50;;;4.50;85.20;;;;;;6278533;28;20687;-79
2022/01/25 16:03:55;;;;;;;73.40;27.58;;;4.50;85.20;;;;;;6277733;28;20049;-79
2022/01/25 16:06:58;;;;;;;56.13;22.92;;;4.50;85.10;;;;;;6278047;28;20417;-79
2022/01/25 16:10:00;;;;;;;57.25;23.38;;;4.60;85.00;;;;;;6278575;28;20049;-80
2022/01/25 16:13:02;;;;;;;53.95;21.58;;;4.50;84.60;;;;;;6278725;28;20056;-81
2022/01/25 16:16:05;;;;;;;57.28;23.42;;;4.40;84.80;;;;;;6279733;28;20049;-81
2022/01/25 16:19:07;;;;;;;65.25;25.45;;;4.40;85.20;;;;;;6261571;28;20414;-80
2022/01/25 16:22:09;;;;;;;56.60;23.35;;;4.40;85.30;;;;;;6253578;28;20059;-80
2022/01/25 16:25:11;;;;;;;58.58;24.70;;;4.30;85.60;;;;;;6254541;28;20650;-80
2022/01/25 16:28:12;;;;;;;61.00;24.17;;;4.20;85.80;;;;;;6254602;28;20047;-79
2022/01/25 16:31:21;;;;;;;65.43;25.25;;;4.20;85.80;;;;;;6252020;28;20477;-79
2022/01/25 16:34:23;;;;;;;59.70;23.92;;;4.10;86.10;;;;;;6255240;28;20136;-80
2022/01/25 16:37:25;;;;;;;67.35;27.30;;;4.10;86.60;;;;;;6256921;28;20050;-79
2022/01/25 16:40:26;;;;;;;68.68;27.38;;;4.00;86.90;;;;;;6274140;28;20052;-79
2022/01/25 16:43:28;;;;;;;57.75;24.67;;;4.10;87.20;;;;;;6266820;28;20053;-78
2022/01/25 16:46:32;;;;;;;66.15;23.48;;;4.10;87.00;;;;;;6254732;28;20056;-80
2022/01/25 16:49:34;;;;;;;71.07;23.02;;;4.10;86.90;;;;;;6255286;28;20136;-80
2022/01/25 16:52:37;;;;;;;54.30;22.23;;;4.10;86.70;;;;;;6255274;28;20041;-80
2022/01/25 16:55:38;;;;;;;62.78;24.40;;;4.10;86.70;;;;;;6252801;28;20057;-80
2022/01/25 16:58:41;;;;;;;67.07;25.30;;;4.10;86.70;;;;;;6246216;28;20056;-80
2022/01/25 17:01:44;;;;;;;64.45;23.83;;;4.10;86.80;;;;;;6256140;28;20048;-80
2022/01/25 17:04:45;;;;;;;70.68;25.70;;;4.10;86.80;;;;;;6253338;28;20042;-80
2022/01/25 17:07:47;;;;;;;61.92;25.60;;;4.10;86.90;;;;;;6256168;28;20052;-80